KRKS/RKS METAR and TAF weather

Enter ICAO airport designator
Station Type Date Time Source
KRKS METAR 2022/12/04 09:54 UTC NOAA

KRKS 040954Z AUTO 19005KT 10SM CLR M13/M16 A3025 RMK AO2 SLP322 T11331156


Station Type Date Time Source
KRKS Decoded METAR 2022/12/04 09:54 UTC NOAA

ROCK SPRINGS-SWEETWATER CO, WY, United States (KRKS) 41-36N 109-03W
Dec 04, 2022 - 04:54 AM EST / 2022.12.04 0954 UTC
Wind: from the S (190 degrees) at 6 MPH (5 KT):0
Visibility: 10 mile(s):0
Sky conditions: clear
Temperature: 8.1 F (-13.3 C)
Windchill: -2 F (-19 C):1
Dew Point: 3.9 F (-15.6 C)
Relative Humidity: 82%
Pressure (altimeter): 30.25 in. Hg (1024 hPa)
ob: KRKS 040954Z AUTO 19005KT 10SM CLR M13/M16 A3025 RMK AO2 SLP322 T11331156
cycle: 10

Station Type Date Time Source
KRKS TAF 2022/12/04 06:36 UTC NOAA

TAF KRKS 040532Z 0406/0506 VRB05KT P6SM SCT150
FM041200 VRB05KT P6SM BKN100
FM042100 23010KT P6SM BKN070
FM050000 22010KT P6SM VCSH BKN050

Example: see airport list